Terminal Aerodrome Forecast
Issued by NWS Cleveland, OH

Home | Current Version | Previous Version | Text Only | Print | Product List | Glossary Off
Versions: 1 2 3 4 5 6 7 8 9 10 11 12 13

889
FTUS41 KCLE 160523
TAFTOL
TAF
KTOL 160523Z 1606/1706 31006KT P6SM FEW025
     FM161700 28007KT P6SM BKN050
     FM170100 22003KT P6SM SCT040=

USA.gov is the U.S. government's official web portal to all federal, state and local government web resources and services.